createdAt,value
2019-02-12T00:01:31.721Z,7.50
2019-02-12T00:04:36.848Z,7.40
2019-02-12T00:07:41.777Z,7.30
2019-02-12T00:10:47.036Z,7.30
2019-02-12T00:13:52.365Z,7.20
2019-02-12T00:16:57.457Z,7.30
2019-02-12T00:20:02.734Z,7.30
2019-02-12T00:23:07.737Z,7.40
2019-02-12T00:26:12.813Z,7.40
2019-02-12T00:29:17.912Z,7.40
2019-02-12T00:32:23.012Z,7.40
2019-02-12T00:35:27.997Z,7.30
2019-02-12T00:38:33.050Z,7.30
2019-02-12T00:41:38.154Z,7.30
2019-02-12T00:44:43.013Z,7.20
2019-02-12T00:47:48.158Z,7.20
2019-02-12T00:50:53.333Z,7.10
2019-02-12T00:53:58.413Z,7.00
2019-02-12T00:57:03.623Z,7.00
2019-02-12T01:00:10.328Z,7.00
2019-02-12T01:03:15.287Z,6.90
2019-02-12T01:06:20.217Z,6.90
2019-02-12T01:09:25.335Z,6.80
2019-02-12T01:12:30.327Z,6.80
2019-02-12T01:15:35.216Z,6.70
2019-02-12T01:18:40.378Z,6.60
2019-02-12T01:21:45.565Z,6.60
2019-02-12T01:24:50.450Z,6.60
2019-02-12T01:27:56.005Z,6.60
2019-02-12T01:31:01.151Z,6.50
2019-02-12T01:34:06.383Z,6.50
2019-02-12T01:37:11.332Z,6.40
2019-02-12T01:40:16.418Z,6.40
2019-02-12T01:43:21.515Z,6.40
2019-02-12T01:46:26.723Z,6.40
2019-02-12T01:49:31.703Z,6.50
2019-02-12T01:52:36.817Z,6.40
2019-02-12T01:55:41.773Z,6.40
2019-02-12T01:58:46.688Z,6.40
2019-02-12T02:01:51.559Z,6.50
2019-02-12T02:04:56.710Z,6.50
2019-02-12T02:08:01.717Z,6.50
2019-02-12T02:11:06.741Z,6.50
2019-02-12T02:14:11.811Z,6.60
2019-02-12T02:17:16.822Z,6.60
2019-02-12T02:20:23.361Z,6.50
2019-02-12T02:23:28.432Z,6.40
2019-02-12T02:26:33.400Z,6.40
2019-02-12T02:29:38.197Z,6.30
2019-02-12T02:32:43.241Z,6.30
2019-02-12T02:35:48.479Z,6.20
2019-02-12T02:38:53.723Z,6.20
2019-02-12T02:41:58.660Z,6.20
2019-02-12T02:45:04.012Z,6.10
2019-02-12T02:48:08.931Z,6.10
2019-02-12T02:51:15.112Z,6.10
2019-02-12T02:54:20.041Z,6.10
2019-02-12T02:57:24.969Z,6.10
2019-02-12T03:00:29.804Z,6.00
2019-02-12T03:03:34.816Z,6.00
2019-02-12T03:06:39.899Z,6.00
2019-02-12T03:09:44.817Z,6.00
2019-02-12T03:12:49.843Z,6.00
2019-02-12T03:15:54.874Z,5.90
2019-02-12T03:18:59.878Z,6.00
2019-02-12T03:22:04.873Z,6.00
2019-02-12T03:25:10.511Z,5.90
2019-02-12T03:28:15.556Z,5.90
2019-02-12T03:31:20.563Z,5.90
2019-02-12T03:34:26.055Z,5.80
2019-02-12T03:37:31.218Z,5.80
2019-02-12T03:40:36.187Z,5.80
2019-02-12T03:43:41.101Z,5.70
2019-02-12T03:46:45.994Z,5.70
2019-02-12T03:49:51.078Z,5.70
2019-02-12T03:52:56.077Z,5.70
2019-02-12T03:56:01.080Z,5.70
2019-02-12T03:59:05.984Z,5.60
2019-02-12T04:02:11.120Z,5.60
2019-02-12T04:05:16.098Z,5.60
2019-02-12T04:08:21.186Z,5.60
2019-02-12T04:11:26.152Z,5.60
2019-02-12T04:14:31.041Z,5.60
2019-02-12T04:17:36.033Z,5.60
2019-02-12T04:20:40.853Z,5.60
2019-02-12T04:23:46.086Z,5.60
2019-02-12T04:26:51.024Z,5.60
2019-02-12T04:29:55.890Z,5.60
2019-02-12T04:33:00.810Z,5.60
2019-02-12T04:36:05.847Z,5.70
2019-02-12T04:39:10.944Z,5.70
2019-02-12T04:42:15.950Z,5.70
2019-02-12T04:45:20.830Z,5.60
2019-02-12T04:48:25.724Z,5.60
2019-02-12T04:51:30.609Z,5.60
2019-02-12T04:54:35.595Z,5.60
2019-02-12T04:57:40.293Z,5.60
2019-02-12T05:00:45.515Z,5.40
2019-02-12T05:03:50.499Z,5.50
2019-02-12T05:06:55.588Z,5.50
2019-02-12T05:10:00.774Z,5.50
2019-02-12T05:13:05.679Z,5.50
2019-02-12T05:16:10.554Z,5.60
2019-02-12T05:19:15.540Z,5.60
2019-02-12T05:22:20.549Z,5.60
2019-02-12T05:25:25.537Z,5.60
2019-02-12T05:28:30.783Z,5.70
2019-02-12T05:31:35.723Z,5.60
2019-02-12T05:34:40.701Z,5.60
2019-02-12T05:37:45.636Z,5.70
2019-02-12T05:40:50.833Z,5.70
2019-02-12T05:43:56.066Z,5.60
2019-02-12T05:47:01.050Z,5.50
2019-02-12T05:50:06.674Z,5.60
2019-02-12T05:53:11.665Z,5.50
2019-02-12T05:56:16.689Z,5.40
2019-02-12T05:59:21.802Z,5.40
2019-02-12T06:02:26.945Z,5.40
2019-02-12T06:05:31.968Z,5.40
2019-02-12T06:08:36.943Z,5.40
2019-02-12T06:11:41.882Z,5.40
2019-02-12T06:14:46.940Z,5.50
2019-02-12T06:17:51.992Z,5.50
2019-02-12T06:20:57.123Z,5.60
2019-02-12T06:24:02.291Z,5.60
2019-02-12T06:27:07.369Z,5.70
2019-02-12T06:30:12.605Z,5.80
2019-02-12T06:33:17.623Z,5.90
2019-02-12T06:36:22.651Z,6.00
2019-02-12T06:39:27.638Z,6.10
2019-02-12T06:42:32.720Z,6.30
2019-02-12T06:45:37.608Z,6.40
2019-02-12T06:48:42.538Z,6.40
2019-02-12T06:51:47.576Z,6.50
2019-02-12T06:54:52.668Z,6.40
2019-02-12T06:57:57.670Z,6.40
2019-02-12T07:01:02.761Z,6.40
2019-02-12T07:04:17.060Z,6.40
2019-02-12T07:08:10.830Z,6.60
2019-02-12T07:11:52.922Z,6.60
2019-02-12T07:15:02.819Z,6.60
2019-02-12T07:18:34.216Z,6.70
2019-02-12T07:22:15.135Z,6.80
2019-02-12T07:26:06.001Z,6.90
2019-02-12T07:29:39.615Z,7.00
2019-02-12T07:33:13.644Z,7.00
2019-02-12T07:36:44.031Z,7.20
2019-02-12T07:40:30.863Z,7.30
2019-02-12T07:44:03.216Z,7.40
2019-02-12T07:47:14.274Z,7.60
2019-02-12T07:50:36.728Z,7.70
2019-02-12T07:54:16.215Z,7.70
2019-02-12T07:58:08.110Z,7.70
2019-02-12T08:01:42.555Z,7.70
2019-02-12T08:05:26.322Z,7.70
2019-02-12T08:09:03.923Z,7.50
2019-02-12T08:12:56.136Z,7.50
2019-02-12T08:16:41.825Z,7.50
2019-02-12T08:20:34.688Z,7.70
2019-02-12T08:24:38.168Z,7.90
2019-02-12T08:28:21.019Z,8.30
2019-02-12T08:31:51.411Z,8.40
2019-02-12T08:35:57.325Z,8.40
2019-02-12T08:39:08.401Z,8.40
2019-02-12T08:42:39.337Z,8.70
2019-02-12T08:46:38.005Z,9.00
2019-02-12T08:50:01.856Z,9.30
2019-02-12T08:53:39.411Z,9.50
2019-02-12T08:57:40.282Z,9.50
2019-02-12T09:01:10.412Z,9.40
2019-02-12T09:04:58.114Z,9.50
2019-02-12T09:08:27.741Z,9.60
2019-02-12T09:12:05.341Z,9.80
2019-02-12T09:15:48.175Z,9.60
2019-02-12T09:19:17.553Z,9.70
2019-02-12T09:22:38.963Z,10.10
2019-02-12T09:26:15.117Z,13.00
2019-02-12T09:29:42.274Z,18.10
2019-02-12T09:33:28.857Z,22.70
2019-02-12T09:37:10.650Z,25.40
2019-02-12T09:40:59.737Z,26.10
2019-02-12T09:44:54.033Z,22.80
2019-02-12T09:48:22.737Z,20.40
2019-02-12T09:52:00.124Z,18.90
2019-02-12T09:55:34.891Z,18.40
2019-02-12T09:58:53.329Z,19.60
2019-02-12T10:02:26.770Z,20.80
2019-02-12T10:06:21.581Z,21.60
2019-02-12T10:10:14.689Z,20.60
2019-02-12T10:13:48.314Z,21.40
2019-02-12T10:17:15.877Z,20.10
2019-02-12T10:20:34.277Z,19.90
2019-02-12T10:24:08.436Z,20.30
2019-02-12T10:28:00.154Z,22.00
2019-02-12T10:31:26.066Z,23.00
2019-02-12T10:34:30.936Z,22.70
2019-02-12T10:37:35.845Z,23.50
2019-02-12T10:40:40.919Z,23.30
2019-02-12T10:43:45.996Z,22.40
2019-02-12T10:46:51.103Z,21.50
2019-02-12T10:49:56.162Z,21.20
2019-02-12T10:53:00.968Z,21.90
2019-02-12T10:56:06.101Z,23.50
2019-02-12T10:59:11.285Z,25.70
2019-02-12T11:02:16.276Z,28.10
2019-02-12T11:05:21.181Z,29.60
2019-02-12T11:08:26.234Z,29.40
2019-02-12T11:11:31.661Z,29.40
2019-02-12T11:14:36.657Z,28.90
2019-02-12T11:17:41.636Z,28.00
2019-02-12T11:20:46.691Z,27.10
2019-02-12T11:23:51.710Z,27.80
2019-02-12T11:26:56.889Z,28.60
2019-02-12T11:30:01.766Z,28.90
2019-02-12T11:33:06.960Z,29.90
2019-02-12T11:36:12.240Z,31.30
2019-02-12T11:39:17.251Z,32.00
2019-02-12T11:42:22.316Z,29.80
2019-02-12T11:45:27.577Z,29.20
2019-02-12T11:48:32.638Z,28.00
2019-02-12T11:51:37.633Z,25.40
2019-02-12T11:54:43.952Z,24.70
2019-02-12T11:57:49.066Z,23.20
2019-02-12T12:01:01.884Z,24.60
2019-02-12T12:04:06.725Z,25.80
2019-02-12T12:07:11.764Z,26.90
2019-02-12T12:10:17.172Z,27.80
2019-02-12T12:13:22.269Z,25.60
2019-02-12T12:16:27.407Z,22.20
2019-02-12T12:19:32.554Z,20.00
2019-02-12T12:22:37.397Z,19.30
2019-02-12T12:25:42.319Z,17.80
2019-02-12T12:28:47.275Z,17.80
2019-02-12T12:31:52.387Z,17.90
2019-02-12T12:34:59.100Z,19.60
2019-02-12T12:38:04.244Z,20.30
2019-02-12T12:41:09.499Z,19.30
2019-02-12T12:44:14.564Z,17.70
2019-02-12T12:47:19.624Z,19.10
2019-02-12T12:50:24.669Z,20.20
2019-02-12T12:53:29.346Z,19.70
2019-02-12T12:56:34.075Z,18.60
2019-02-12T12:59:39.045Z,17.80
2019-02-12T13:02:43.916Z,16.20
2019-02-12T13:05:49.397Z,15.00
2019-02-12T13:08:54.418Z,14.20
2019-02-12T13:11:59.449Z,13.70
2019-02-12T13:15:04.607Z,13.30
2019-02-12T13:18:09.537Z,12.80
2019-02-12T13:21:14.481Z,12.60
2019-02-12T13:24:19.601Z,12.30
2019-02-12T13:27:24.783Z,12.20
2019-02-12T13:30:29.958Z,12.20
2019-02-12T13:33:34.894Z,12.30
2019-02-12T13:36:39.824Z,12.50
2019-02-12T13:39:44.709Z,13.40
2019-02-12T13:42:49.912Z,14.10
2019-02-12T13:45:54.776Z,13.70
2019-02-12T13:48:59.758Z,13.20
2019-02-12T13:52:04.732Z,12.80
2019-02-12T13:55:16.944Z,12.50
2019-02-12T13:58:16.410Z,12.10
2019-02-12T14:01:21.401Z,11.70
2019-02-12T14:04:26.430Z,11.30
2019-02-12T14:07:31.265Z,11.10
2019-02-12T14:10:36.380Z,11.00
2019-02-12T14:13:41.437Z,10.80
2019-02-12T14:16:46.282Z,10.60
2019-02-12T14:19:51.178Z,10.50
2019-02-12T14:22:56.338Z,10.50
2019-02-12T14:26:01.173Z,10.50
2019-02-12T14:29:06.182Z,10.50
2019-02-12T14:32:11.084Z,10.40
2019-02-12T14:35:15.935Z,10.50
2019-02-12T14:38:20.689Z,10.60
2019-02-12T14:41:25.816Z,10.40
2019-02-12T14:44:30.906Z,10.20
2019-02-12T14:47:36.006Z,9.80
2019-02-12T14:50:40.935Z,9.50
2019-02-12T14:53:46.050Z,9.20
2019-02-12T14:56:51.055Z,9.20
2019-02-12T14:59:55.930Z,9.20
2019-02-12T15:03:01.114Z,9.20
2019-02-12T15:06:06.006Z,9.10
2019-02-12T15:09:11.201Z,9.00
2019-02-12T15:12:16.092Z,8.90
2019-02-12T15:15:21.261Z,8.80
2019-02-12T15:18:26.240Z,8.60
2019-02-12T15:21:31.382Z,8.60
2019-02-12T15:24:36.397Z,8.60
2019-02-12T15:27:41.944Z,8.50
2019-02-12T15:30:49.964Z,8.30
2019-02-12T15:33:54.986Z,8.20
2019-02-12T15:36:59.910Z,8.20
2019-02-12T15:40:05.577Z,8.20
2019-02-12T15:43:10.840Z,8.00
2019-02-12T15:46:15.961Z,8.00
2019-02-12T15:49:21.216Z,7.90
2019-02-12T15:52:26.363Z,7.90
2019-02-12T15:55:31.360Z,7.90
2019-02-12T15:58:36.379Z,7.90
2019-02-12T16:01:41.456Z,8.00
2019-02-12T16:04:48.184Z,7.90
2019-02-12T16:07:53.624Z,7.90
2019-02-12T16:10:58.983Z,7.80
2019-02-12T16:14:04.195Z,7.80
2019-02-12T16:17:09.272Z,7.80
2019-02-12T16:20:14.178Z,7.70
2019-02-12T16:23:19.316Z,7.70
2019-02-12T16:26:24.388Z,7.70
2019-02-12T16:29:29.405Z,7.60
2019-02-12T16:32:34.570Z,7.70
2019-02-12T16:35:39.531Z,7.70
2019-02-12T16:38:44.535Z,7.70
2019-02-12T16:41:49.740Z,7.70
2019-02-12T16:44:54.690Z,7.50
2019-02-12T16:48:00.206Z,7.50
2019-02-12T16:51:05.470Z,7.60
2019-02-12T16:54:10.724Z,7.60
2019-02-12T16:57:15.701Z,7.70
2019-02-12T17:00:20.687Z,7.70
2019-02-12T17:03:25.589Z,7.70
2019-02-12T17:06:30.672Z,7.50
2019-02-12T17:09:35.693Z,7.50
2019-02-12T17:12:40.551Z,7.50
2019-02-12T17:15:45.380Z,7.40
2019-02-12T17:18:50.191Z,7.40
2019-02-12T17:21:55.086Z,7.40
2019-02-12T17:25:00.285Z,7.40
2019-02-12T17:28:05.370Z,7.40
2019-02-12T17:31:10.462Z,7.40
2019-02-12T17:34:15.510Z,7.40
2019-02-12T17:37:20.666Z,7.40
2019-02-12T17:40:25.804Z,7.40
2019-02-12T17:43:30.978Z,7.40
2019-02-12T17:46:36.105Z,7.30
2019-02-12T17:49:41.526Z,7.30
2019-02-12T17:52:46.663Z,7.20
2019-02-12T17:55:51.936Z,7.20
2019-02-12T17:58:57.074Z,7.20
2019-02-12T18:02:02.170Z,7.20
2019-02-12T18:05:07.951Z,7.10
2019-02-12T18:08:12.900Z,7.10
2019-02-12T18:11:17.993Z,7.10
2019-02-12T18:14:23.071Z,7.10
2019-02-12T18:17:27.988Z,7.00
2019-02-12T18:20:33.147Z,6.90
2019-02-12T18:23:38.441Z,6.90
2019-02-12T18:26:44.297Z,6.90
2019-02-12T18:29:49.362Z,6.80
2019-02-12T18:32:54.523Z,6.90
2019-02-12T18:35:59.609Z,6.90
2019-02-12T18:39:05.921Z,6.80
2019-02-12T18:42:11.095Z,6.90
2019-02-12T18:45:16.497Z,6.90
2019-02-12T18:48:21.674Z,6.90
2019-02-12T18:51:26.517Z,6.80
2019-02-12T18:54:31.635Z,6.70
2019-02-12T18:57:36.850Z,6.60
2019-02-12T19:00:41.670Z,6.50
2019-02-12T19:03:46.670Z,6.50
2019-02-12T19:06:51.768Z,6.40
2019-02-12T19:09:56.750Z,6.40
2019-02-12T19:13:01.683Z,6.30
2019-02-12T19:16:06.689Z,6.40
2019-02-12T19:19:11.760Z,6.40
2019-02-12T19:22:16.938Z,6.40
2019-02-12T19:25:21.812Z,6.40
2019-02-12T19:28:26.834Z,6.40
2019-02-12T19:31:32.013Z,6.30
2019-02-12T19:34:37.081Z,6.40
2019-02-12T19:37:42.099Z,6.40
2019-02-12T19:40:47.415Z,6.40
2019-02-12T19:43:52.277Z,6.30
2019-02-12T19:46:57.578Z,6.30
2019-02-12T19:50:02.612Z,6.40
2019-02-12T19:53:07.754Z,6.40
2019-02-12T19:56:12.884Z,6.40
2019-02-12T19:59:18.053Z,6.40
2019-02-12T20:02:23.540Z,6.50
2019-02-12T20:05:28.719Z,6.50
2019-02-12T20:08:34.036Z,6.60
2019-02-12T20:11:39.037Z,6.60
2019-02-12T20:14:44.137Z,6.70
2019-02-12T20:17:49.140Z,6.70
2019-02-12T20:20:54.050Z,6.70
2019-02-12T20:23:59.118Z,6.70
2019-02-12T20:27:06.662Z,6.70
2019-02-12T20:30:13.002Z,6.80
2019-02-12T20:33:18.054Z,6.70
2019-02-12T20:36:23.432Z,6.70
2019-02-12T20:39:28.311Z,6.70
2019-02-12T20:42:33.375Z,6.70
2019-02-12T20:45:38.469Z,6.70
2019-02-12T20:48:43.625Z,6.70
2019-02-12T20:51:48.636Z,6.70
2019-02-12T20:54:53.855Z,6.70
2019-02-12T20:57:58.817Z,6.70
2019-02-12T21:01:03.896Z,6.60
2019-02-12T21:04:09.056Z,6.70
2019-02-12T21:07:14.172Z,6.70
2019-02-12T21:10:19.389Z,6.70
2019-02-12T21:13:24.354Z,6.70
2019-02-12T21:16:29.468Z,6.80
2019-02-12T21:19:34.786Z,6.90
2019-02-12T21:22:39.772Z,6.90
2019-02-12T21:25:45.147Z,6.90
2019-02-12T21:28:50.531Z,6.90
2019-02-12T21:31:56.087Z,6.90
2019-02-12T21:35:01.121Z,6.90
2019-02-12T21:38:09.052Z,6.80
2019-02-12T21:41:14.098Z,6.80
2019-02-12T21:44:19.145Z,6.90
2019-02-12T21:47:24.386Z,6.90
2019-02-12T21:50:29.319Z,6.90
2019-02-12T21:53:34.442Z,6.80
2019-02-12T21:56:39.429Z,6.80
2019-02-12T21:59:44.696Z,6.80
2019-02-12T22:02:49.631Z,6.80
2019-02-12T22:05:54.559Z,6.80
2019-02-12T22:08:59.596Z,6.80
2019-02-12T22:12:04.840Z,6.80
2019-02-12T22:15:13.652Z,6.80
2019-02-12T22:18:18.989Z,6.80
2019-02-12T22:21:23.949Z,6.70
2019-02-12T22:24:29.058Z,6.70
2019-02-12T22:27:40.224Z,6.80
2019-02-12T22:30:41.242Z,6.80
2019-02-12T22:33:46.357Z,6.80
2019-02-12T22:36:51.500Z,6.80
2019-02-12T22:39:56.458Z,6.90
2019-02-12T22:43:01.607Z,6.90
2019-02-12T22:46:06.683Z,6.90
2019-02-12T22:49:11.696Z,6.70
2019-02-12T22:52:16.630Z,6.60
2019-02-12T22:55:21.757Z,6.50
2019-02-12T22:58:26.688Z,6.40
2019-02-12T23:01:41.544Z,6.50
2019-02-12T23:04:46.798Z,6.50
2019-02-12T23:07:51.853Z,6.50
2019-02-12T23:10:56.898Z,6.40
2019-02-12T23:14:01.888Z,6.40
2019-02-12T23:17:06.847Z,6.40
2019-02-12T23:20:11.870Z,6.40
2019-02-12T23:23:16.843Z,6.30
2019-02-12T23:26:21.837Z,6.40
2019-02-12T23:29:26.791Z,6.40
2019-02-12T23:32:31.558Z,6.40
2019-02-12T23:35:36.577Z,6.40
2019-02-12T23:38:41.267Z,6.40
2019-02-12T23:41:46.424Z,6.40
2019-02-12T23:44:52.130Z,6.40
2019-02-12T23:47:57.069Z,6.30
2019-02-12T23:51:02.095Z,6.40
2019-02-12T23:54:07.190Z,6.40
2019-02-12T23:57:12.180Z,6.40
